sensor_id;sensor_type;location;lat;lon;timestamp;temperature;humidity
59973;DHT22;55298;-36.624;-64.282;2022-10-16T00:01:26;17.50;47.00
59973;DHT22;55298;-36.624;-64.282;2022-10-16T00:03:55;17.50;46.80
59973;DHT22;55298;-36.624;-64.282;2022-10-16T00:06:25;17.60;46.70
59973;DHT22;55298;-36.624;-64.282;2022-10-16T00:08:53;17.50;46.60
59973;DHT22;55298;-36.624;-64.282;2022-10-16T00:11:24;17.50;46.70
59973;DHT22;55298;-36.624;-64.282;2022-10-16T00:13:58;17.50;46.80
59973;DHT22;55298;-36.624;-64.282;2022-10-16T00:16:27;17.40;47.10
59973;DHT22;55298;-36.624;-64.282;2022-10-16T00:18:55;17.40;47.30
59973;DHT22;55298;-36.624;-64.282;2022-10-16T00:21:26;17.40;47.60
59973;DHT22;55298;-36.624;-64.282;2022-10-16T00:23:58;17.40;47.80
59973;DHT22;55298;-36.624;-64.282;2022-10-16T00:26:28;17.40;48.10
59973;DHT22;55298;-36.624;-64.282;2022-10-16T00:28:56;17.40;48.30
59973;DHT22;55298;-36.624;-64.282;2022-10-16T00:31:23;17.40;48.60
59973;DHT22;55298;-36.624;-64.282;2022-10-16T00:33:52;17.30;48.80
59973;DHT22;55298;-36.624;-64.282;2022-10-16T00:36:23;17.30;49.00
59973;DHT22;55298;-36.624;-64.282;2022-10-16T00:38:56;17.20;49.20
59973;DHT22;55298;-36.624;-64.282;2022-10-16T00:41:28;17.30;49.50
59973;DHT22;55298;-36.624;-64.282;2022-10-16T00:43:59;17.20;49.60
59973;DHT22;55298;-36.624;-64.282;2022-10-16T00:46:38;17.20;49.90
59973;DHT22;55298;-36.624;-64.282;2022-10-16T00:49:12;17.20;50.20
59973;DHT22;55298;-36.624;-64.282;2022-10-16T00:51:46;17.10;50.50
59973;DHT22;55298;-36.624;-64.282;2022-10-16T00:54:21;17.10;50.90
59973;DHT22;55298;-36.624;-64.282;2022-10-16T00:56:50;17.00;51.10
59973;DHT22;55298;-36.624;-64.282;2022-10-16T00:59:26;17.00;51.20
59973;DHT22;55298;-36.624;-64.282;2022-10-16T01:01:55;17.00;51.40
59973;DHT22;55298;-36.624;-64.282;2022-10-16T01:04:26;17.00;52.10
59973;DHT22;55298;-36.624;-64.282;2022-10-16T01:13:01;16.80;52.00
59973;DHT22;55298;-36.624;-64.282;2022-10-16T01:15:47;16.70;52.20
59973;DHT22;55298;-36.624;-64.282;2022-10-16T01:18:30;16.70;52.50
59973;DHT22;55298;-36.624;-64.282;2022-10-16T01:21:08;16.60;52.70
59973;DHT22;55298;-36.624;-64.282;2022-10-16T01:24:02;16.60;53.00
59973;DHT22;55298;-36.624;-64.282;2022-10-16T01:29:45;16.40;53.70
59973;DHT22;55298;-36.624;-64.282;2022-10-16T01:35:16;16.20;54.40
59973;DHT22;55298;-36.624;-64.282;2022-10-16T01:40:43;16.10;54.70
59973;DHT22;55298;-36.624;-64.282;2022-10-16T01:43:15;16.10;55.00
59973;DHT22;55298;-36.624;-64.282;2022-10-16T01:45:44;16.00;55.10
59973;DHT22;55298;-36.624;-64.282;2022-10-16T01:48:14;16.00;55.30
59973;DHT22;55298;-36.624;-64.282;2022-10-16T01:50:47;15.90;55.50
59973;DHT22;55298;-36.624;-64.282;2022-10-16T01:53:16;15.90;55.80
59973;DHT22;55298;-36.624;-64.282;2022-10-16T01:55:47;15.80;55.90
59973;DHT22;55298;-36.624;-64.282;2022-10-16T01:58:16;15.80;56.10
59973;DHT22;55298;-36.624;-64.282;2022-10-16T02:00:47;15.70;56.50
59973;DHT22;55298;-36.624;-64.282;2022-10-16T02:03:17;15.60;56.90
59973;DHT22;55298;-36.624;-64.282;2022-10-16T02:05:55;15.50;57.30
59973;DHT22;55298;-36.624;-64.282;2022-10-16T02:08:25;15.40;57.70
59973;DHT22;55298;-36.624;-64.282;2022-10-16T02:10:57;15.30;58.20
59973;DHT22;55298;-36.624;-64.282;2022-10-16T02:13:36;15.20;58.60
59973;DHT22;55298;-36.624;-64.282;2022-10-16T02:16:06;15.10;59.10
59973;DHT22;55298;-36.624;-64.282;2022-10-16T02:18:33;15.10;59.50
59973;DHT22;55298;-36.624;-64.282;2022-10-16T02:21:17;15.00;60.00
59973;DHT22;55298;-36.624;-64.282;2022-10-16T02:27:06;14.90;60.80
59973;DHT22;55298;-36.624;-64.282;2022-10-16T02:29:40;14.80;61.10
59973;DHT22;55298;-36.624;-64.282;2022-10-16T02:32:13;14.80;61.70
59973;DHT22;55298;-36.624;-64.282;2022-10-16T02:34:43;16.40;63.40
59973;DHT22;55298;-36.624;-64.282;2022-10-16T02:37:13;15.60;63.50
59973;DHT22;55298;-36.624;-64.282;2022-10-16T02:39:41;14.60;63.40
59973;DHT22;55298;-36.624;-64.282;2022-10-16T02:42:17;14.50;63.90
59973;DHT22;55298;-36.624;-64.282;2022-10-16T02:44:46;14.40;64.40
59973;DHT22;55298;-36.624;-64.282;2022-10-16T02:47:14;14.40;64.60
59973;DHT22;55298;-36.624;-64.282;2022-10-16T02:49:41;14.40;65.00
59973;DHT22;55298;-36.624;-64.282;2022-10-16T02:52:12;14.40;65.10
59973;DHT22;55298;-36.624;-64.282;2022-10-16T02:54:44;14.40;65.40
59973;DHT22;55298;-36.624;-64.282;2022-10-16T02:57:13;14.30;65.50
59973;DHT22;55298;-36.624;-64.282;2022-10-16T02:59:40;14.30;66.00
59973;DHT22;55298;-36.624;-64.282;2022-10-16T03:02:09;14.20;66.20
59973;DHT22;55298;-36.624;-64.282;2022-10-16T03:04:37;14.30;66.30
59973;DHT22;55298;-36.624;-64.282;2022-10-16T03:07:05;14.20;67.00
59973;DHT22;55298;-36.624;-64.282;2022-10-16T03:09:32;14.10;67.80
59973;DHT22;55298;-36.624;-64.282;2022-10-16T03:12:02;14.10;68.00
59973;DHT22;55298;-36.624;-64.282;2022-10-16T03:14:33;14.10;68.40
59973;DHT22;55298;-36.624;-64.282;2022-10-16T03:17:02;14.00;69.30
59973;DHT22;55298;-36.624;-64.282;2022-10-16T03:19:29;13.90;69.80
59973;DHT22;55298;-36.624;-64.282;2022-10-16T03:21:57;13.80;70.60
59973;DHT22;55298;-36.624;-64.282;2022-10-16T03:24:27;13.60;71.70
59973;DHT22;55298;-36.624;-64.282;2022-10-16T03:26:54;13.40;72.30
59973;DHT22;55298;-36.624;-64.282;2022-10-16T03:29:21;13.50;73.00
59973;DHT22;55298;-36.624;-64.282;2022-10-16T03:31:50;13.50;73.50
59973;DHT22;55298;-36.624;-64.282;2022-10-16T03:34:18;13.50;73.80
59973;DHT22;55298;-36.624;-64.282;2022-10-16T03:36:45;13.50;73.90
59973;DHT22;55298;-36.624;-64.282;2022-10-16T03:39:14;13.50;74.30
59973;DHT22;55298;-36.624;-64.282;2022-10-16T03:41:41;13.50;74.30
59973;DHT22;55298;-36.624;-64.282;2022-10-16T03:44:08;13.30;74.80
59973;DHT22;55298;-36.624;-64.282;2022-10-16T03:46:36;13.40;75.30
59973;DHT22;55298;-36.624;-64.282;2022-10-16T03:49:04;13.40;75.90
59973;DHT22;55298;-36.624;-64.282;2022-10-16T03:51:31;13.30;76.10
59973;DHT22;55298;-36.624;-64.282;2022-10-16T03:53:59;13.30;76.40
59973;DHT22;55298;-36.624;-64.282;2022-10-16T03:56:26;13.30;76.50
59973;DHT22;55298;-36.624;-64.282;2022-10-16T03:58:55;13.30;76.80
59973;DHT22;55298;-36.624;-64.282;2022-10-16T04:01:23;13.30;77.20
59973;DHT22;55298;-36.624;-64.282;2022-10-16T04:03:51;13.30;77.50
59973;DHT22;55298;-36.624;-64.282;2022-10-16T04:06:20;13.40;77.90
59973;DHT22;55298;-36.624;-64.282;2022-10-16T04:08:47;13.40;77.70
59973;DHT22;55298;-36.624;-64.282;2022-10-16T04:11:14;13.40;78.30
59973;DHT22;55298;-36.624;-64.282;2022-10-16T04:13:43;13.40;78.50
59973;DHT22;55298;-36.624;-64.282;2022-10-16T04:16:11;13.30;78.90
59973;DHT22;55298;-36.624;-64.282;2022-10-16T04:18:39;13.30;79.30
59973;DHT22;55298;-36.624;-64.282;2022-10-16T04:21:07;13.30;79.90
59973;DHT22;55298;-36.624;-64.282;2022-10-16T04:23:36;13.30;80.60
59973;DHT22;55298;-36.624;-64.282;2022-10-16T04:26:05;13.20;81.30
59973;DHT22;55298;-36.624;-64.282;2022-10-16T04:28:33;13.10;81.90
59973;DHT22;55298;-36.624;-64.282;2022-10-16T04:31:03;13.10;82.80
59973;DHT22;55298;-36.624;-64.282;2022-10-16T04:33:30;13.10;83.30
59973;DHT22;55298;-36.624;-64.282;2022-10-16T04:35:59;13.00;83.80
59973;DHT22;55298;-36.624;-64.282;2022-10-16T04:38:27;12.90;84.40
59973;DHT22;55298;-36.624;-64.282;2022-10-16T04:40:55;12.90;85.30
59973;DHT22;55298;-36.624;-64.282;2022-10-16T04:43:22;12.80;85.80
59973;DHT22;55298;-36.624;-64.282;2022-10-16T04:45:50;12.80;86.60
59973;DHT22;55298;-36.624;-64.282;2022-10-16T04:48:17;12.70;87.00
59973;DHT22;55298;-36.624;-64.282;2022-10-16T04:50:46;12.70;88.00
59973;DHT22;55298;-36.624;-64.282;2022-10-16T04:53:13;12.60;88.80
59973;DHT22;55298;-36.624;-64.282;2022-10-16T04:55:42;12.60;89.20
59973;DHT22;55298;-36.624;-64.282;2022-10-16T04:58:09;12.50;89.90
59973;DHT22;55298;-36.624;-64.282;2022-10-16T05:00:37;12.60;90.60
59973;DHT22;55298;-36.624;-64.282;2022-10-16T05:03:05;12.50;90.80
59973;DHT22;55298;-36.624;-64.282;2022-10-16T05:05:35;12.50;91.20
59973;DHT22;55298;-36.624;-64.282;2022-10-16T05:08:04;12.40;91.70
59973;DHT22;55298;-36.624;-64.282;2022-10-16T05:10:32;12.40;92.10
59973;DHT22;55298;-36.624;-64.282;2022-10-16T05:13:03;12.40;92.70
59973;DHT22;55298;-36.624;-64.282;2022-10-16T05:15:30;12.40;93.20
59973;DHT22;55298;-36.624;-64.282;2022-10-16T05:17:58;12.50;93.60
59973;DHT22;55298;-36.624;-64.282;2022-10-16T05:20:26;12.40;94.00
59973;DHT22;55298;-36.624;-64.282;2022-10-16T05:22:54;12.40;94.20
59973;DHT22;55298;-36.624;-64.282;2022-10-16T05:25:23;12.30;94.60
59973;DHT22;55298;-36.624;-64.282;2022-10-16T05:27:51;12.40;95.10
59973;DHT22;55298;-36.624;-64.282;2022-10-16T05:30:18;12.30;95.30
59973;DHT22;55298;-36.624;-64.282;2022-10-16T05:32:47;12.20;95.90
59973;DHT22;55298;-36.624;-64.282;2022-10-16T05:35:17;12.20;96.20
59973;DHT22;55298;-36.624;-64.282;2022-10-16T05:37:46;12.10;96.50
59973;DHT22;55298;-36.624;-64.282;2022-10-16T05:40:13;12.20;96.90
59973;DHT22;55298;-36.624;-64.282;2022-10-16T05:42:41;12.20;97.20
59973;DHT22;55298;-36.624;-64.282;2022-10-16T05:45:10;12.10;97.60
59973;DHT22;55298;-36.624;-64.282;2022-10-16T05:47:38;12.00;98.00
59973;DHT22;55298;-36.624;-64.282;2022-10-16T05:50:06;11.90;98.30
59973;DHT22;55298;-36.624;-64.282;2022-10-16T05:52:34;11.90;98.60
59973;DHT22;55298;-36.624;-64.282;2022-10-16T05:55:02;11.90;98.90
59973;DHT22;55298;-36.624;-64.282;2022-10-16T05:57:30;11.90;99.60
59973;DHT22;55298;-36.624;-64.282;2022-10-16T05:59:58;11.80;99.50
59973;DHT22;55298;-36.624;-64.282;2022-10-16T06:02:26;11.80;99.80
59973;DHT22;55298;-36.624;-64.282;2022-10-16T06:04:53;11.80;99.80
59973;DHT22;55298;-36.624;-64.282;2022-10-16T06:07:21;11.70;99.90
59973;DHT22;55298;-36.624;-64.282;2022-10-16T06:09:50;11.70;99.90
59973;DHT22;55298;-36.624;-64.282;2022-10-16T06:12:21;11.70;99.90
59973;DHT22;55298;-36.624;-64.282;2022-10-16T06:14:50;11.70;99.90
59973;DHT22;55298;-36.624;-64.282;2022-10-16T06:17:18;11.60;99.90
59973;DHT22;55298;-36.624;-64.282;2022-10-16T06:19:45;11.50;99.90
59973;DHT22;55298;-36.624;-64.282;2022-10-16T06:22:12;11.40;99.90
59973;DHT22;55298;-36.624;-64.282;2022-10-16T06:24:40;11.30;99.90
59973;DHT22;55298;-36.624;-64.282;2022-10-16T06:27:08;11.40;99.90
59973;DHT22;55298;-36.624;-64.282;2022-10-16T06:29:35;11.30;99.90
59973;DHT22;55298;-36.624;-64.282;2022-10-16T06:32:03;11.30;99.90
59973;DHT22;55298;-36.624;-64.282;2022-10-16T06:34:31;11.20;99.90
59973;DHT22;55298;-36.624;-64.282;2022-10-16T06:36:59;11.20;99.90
59973;DHT22;55298;-36.624;-64.282;2022-10-16T06:39:26;11.20;99.90
59973;DHT22;55298;-36.624;-64.282;2022-10-16T06:41:53;11.10;99.90
59973;DHT22;55298;-36.624;-64.282;2022-10-16T06:44:21;11.10;99.90
59973;DHT22;55298;-36.624;-64.282;2022-10-16T06:46:49;11.10;99.90
59973;DHT22;55298;-36.624;-64.282;2022-10-16T06:49:16;11.10;99.90
59973;DHT22;55298;-36.624;-64.282;2022-10-16T06:51:52;10.90;99.90
59973;DHT22;55298;-36.624;-64.282;2022-10-16T06:54:20;11.00;99.90
59973;DHT22;55298;-36.624;-64.282;2022-10-16T06:56:48;10.90;99.90
59973;DHT22;55298;-36.624;-64.282;2022-10-16T06:59:15;10.90;99.90
59973;DHT22;55298;-36.624;-64.282;2022-10-16T07:01:42;10.90;99.90
59973;DHT22;55298;-36.624;-64.282;2022-10-16T07:04:10;10.80;99.90
59973;DHT22;55298;-36.624;-64.282;2022-10-16T07:06:37;10.70;99.90
59973;DHT22;55298;-36.624;-64.282;2022-10-16T07:09:08;10.70;99.90
59973;DHT22;55298;-36.624;-64.282;2022-10-16T07:11:38;10.70;99.90
59973;DHT22;55298;-36.624;-64.282;2022-10-16T07:14:11;10.70;99.90
59973;DHT22;55298;-36.624;-64.282;2022-10-16T07:16:40;10.60;99.90
59973;DHT22;55298;-36.624;-64.282;2022-10-16T07:19:08;10.60;99.90
59973;DHT22;55298;-36.624;-64.282;2022-10-16T07:21:38;10.60;99.90
59973;DHT22;55298;-36.624;-64.282;2022-10-16T07:24:11;10.70;99.90
59973;DHT22;55298;-36.624;-64.282;2022-10-16T07:26:39;10.60;99.90
59973;DHT22;55298;-36.624;-64.282;2022-10-16T07:29:15;10.50;99.90
59973;DHT22;55298;-36.624;-64.282;2022-10-16T07:31:45;10.50;99.90
59973;DHT22;55298;-36.624;-64.282;2022-10-16T07:34:12;10.50;99.90
59973;DHT22;55298;-36.624;-64.282;2022-10-16T07:36:41;10.50;99.90
59973;DHT22;55298;-36.624;-64.282;2022-10-16T07:39:08;10.50;99.90
59973;DHT22;55298;-36.624;-64.282;2022-10-16T07:41:37;10.40;99.90
59973;DHT22;55298;-36.624;-64.282;2022-10-16T07:44:04;10.40;99.90
59973;DHT22;55298;-36.624;-64.282;2022-10-16T07:46:34;10.40;99.90
59973;DHT22;55298;-36.624;-64.282;2022-10-16T07:49:03;10.20;99.90
59973;DHT22;55298;-36.624;-64.282;2022-10-16T07:51:31;10.20;99.90
59973;DHT22;55298;-36.624;-64.282;2022-10-16T07:54:00;10.20;99.90
59973;DHT22;55298;-36.624;-64.282;2022-10-16T07:56:28;10.20;99.90
59973;DHT22;55298;-36.624;-64.282;2022-10-16T07:58:56;10.00;99.90
59973;DHT22;55298;-36.624;-64.282;2022-10-16T08:01:25;10.00;99.90
59973;DHT22;55298;-36.624;-64.282;2022-10-16T08:03:52;9.90;99.90
59973;DHT22;55298;-36.624;-64.282;2022-10-16T08:06:21;10.00;99.90
59973;DHT22;55298;-36.624;-64.282;2022-10-16T08:08:49;10.00;99.90
59973;DHT22;55298;-36.624;-64.282;2022-10-16T08:11:18;9.90;99.90
59973;DHT22;55298;-36.624;-64.282;2022-10-16T08:13:45;9.90;99.90
59973;DHT22;55298;-36.624;-64.282;2022-10-16T08:16:13;9.90;99.90
59973;DHT22;55298;-36.624;-64.282;2022-10-16T08:18:41;9.90;99.90
59973;DHT22;55298;-36.624;-64.282;2022-10-16T08:21:14;9.80;99.90
59973;DHT22;55298;-36.624;-64.282;2022-10-16T08:23:41;9.80;99.90
59973;DHT22;55298;-36.624;-64.282;2022-10-16T08:26:11;9.70;99.90
59973;DHT22;55298;-36.624;-64.282;2022-10-16T08:28:39;9.70;99.90
59973;DHT22;55298;-36.624;-64.282;2022-10-16T08:31:12;9.60;99.90
59973;DHT22;55298;-36.624;-64.282;2022-10-16T08:33:40;9.60;99.90
59973;DHT22;55298;-36.624;-64.282;2022-10-16T08:36:11;9.70;99.90
59973;DHT22;55298;-36.624;-64.282;2022-10-16T08:38:39;9.80;99.90
59973;DHT22;55298;-36.624;-64.282;2022-10-16T08:41:33;9.70;99.90
59973;DHT22;55298;-36.624;-64.282;2022-10-16T08:49:43;9.60;99.90
59973;DHT22;55298;-36.624;-64.282;2022-10-16T08:52:14;9.60;99.90
59973;DHT22;55298;-36.624;-64.282;2022-10-16T08:54:45;9.40;99.90
59973;DHT22;55298;-36.624;-64.282;2022-10-16T08:57:20;9.40;99.90
59973;DHT22;55298;-36.624;-64.282;2022-10-16T08:59:48;9.40;99.90
59973;DHT22;55298;-36.624;-64.282;2022-10-16T09:02:33;9.40;99.90
59973;DHT22;55298;-36.624;-64.282;2022-10-16T09:08:03;9.30;99.90
59973;DHT22;55298;-36.624;-64.282;2022-10-16T09:10:56;9.20;99.90
59973;DHT22;55298;-36.624;-64.282;2022-10-16T09:13:36;9.10;99.90
59973;DHT22;55298;-36.624;-64.282;2022-10-16T09:16:19;9.00;99.90
59973;DHT22;55298;-36.624;-64.282;2022-10-16T09:19:03;9.00;99.90
59973;DHT22;55298;-36.624;-64.282;2022-10-16T09:21:38;9.00;99.90
59973;DHT22;55298;-36.624;-64.282;2022-10-16T09:24:24;8.90;99.90
59973;DHT22;55298;-36.624;-64.282;2022-10-16T09:26:54;8.90;99.90
59973;DHT22;55298;-36.624;-64.282;2022-10-16T09:29:22;8.90;99.90
59973;DHT22;55298;-36.624;-64.282;2022-10-16T09:31:52;8.90;99.90
59973;DHT22;55298;-36.624;-64.282;2022-10-16T09:34:32;8.80;99.90
59973;DHT22;55298;-36.624;-64.282;2022-10-16T09:37:04;8.80;99.90
59973;DHT22;55298;-36.624;-64.282;2022-10-16T09:39:44;8.80;99.90
59973;DHT22;55298;-36.624;-64.282;2022-10-16T09:42:25;8.80;99.90
59973;DHT22;55298;-36.624;-64.282;2022-10-16T09:44:54;8.70;99.90
59973;DHT22;55298;-36.624;-64.282;2022-10-16T09:47:24;8.80;99.90
59973;DHT22;55298;-36.624;-64.282;2022-10-16T09:49:58;9.00;99.90
59973;DHT22;55298;-36.624;-64.282;2022-10-16T09:52:29;8.90;99.90
59973;DHT22;55298;-36.624;-64.282;2022-10-16T09:55:00;9.00;99.90
59973;DHT22;55298;-36.624;-64.282;2022-10-16T09:57:29;9.00;99.90
59973;DHT22;55298;-36.624;-64.282;2022-10-16T09:59:58;9.00;99.90
59973;DHT22;55298;-36.624;-64.282;2022-10-16T10:02:36;9.10;99.90
59973;DHT22;55298;-36.624;-64.282;2022-10-16T10:05:06;9.10;99.90
59973;DHT22;55298;-36.624;-64.282;2022-10-16T10:07:45;9.00;99.90
59973;DHT22;55298;-36.624;-64.282;2022-10-16T10:10:23;9.10;99.90
59973;DHT22;55298;-36.624;-64.282;2022-10-16T10:12:52;9.10;99.90
59973;DHT22;55298;-36.624;-64.282;2022-10-16T10:15:20;9.10;99.90
59973;DHT22;55298;-36.624;-64.282;2022-10-16T10:17:52;9.20;99.90
59973;DHT22;55298;-36.624;-64.282;2022-10-16T10:20:33;9.30;99.90
59973;DHT22;55298;-36.624;-64.282;2022-10-16T10:23:13;9.50;99.90
59973;DHT22;55298;-36.624;-64.282;2022-10-16T10:26:07;9.50;99.90
59973;DHT22;55298;-36.624;-64.282;2022-10-16T10:28:51;9.60;99.90
59973;DHT22;55298;-36.624;-64.282;2022-10-16T10:31:49;9.90;99.90
59973;DHT22;55298;-36.624;-64.282;2022-10-16T10:34:49;10.20;99.90
59973;DHT22;55298;-36.624;-64.282;2022-10-16T10:37:35;10.70;99.90
59973;DHT22;55298;-36.624;-64.282;2022-10-16T10:45:47;11.90;99.90
59973;DHT22;55298;-36.624;-64.282;2022-10-16T10:48:38;12.20;99.90
59973;DHT22;55298;-36.624;-64.282;2022-10-16T10:51:20;12.30;99.90
59973;DHT22;55298;-36.624;-64.282;2022-10-16T10:54:03;12.60;99.90
59973;DHT22;55298;-36.624;-64.282;2022-10-16T10:56:57;14.10;99.90
59973;DHT22;55298;-36.624;-64.282;2022-10-16T11:05:21;11.90;99.90
59973;DHT22;55298;-36.624;-64.282;2022-10-16T11:08:13;12.10;99.90
59973;DHT22;55298;-36.624;-64.282;2022-10-16T11:10:58;12.40;99.90
59973;DHT22;55298;-36.624;-64.282;2022-10-16T11:16:20;12.40;99.90
59973;DHT22;55298;-36.624;-64.282;2022-10-16T11:18:57;12.40;99.90
59973;DHT22;55298;-36.624;-64.282;2022-10-16T11:21:30;12.30;99.90
59973;DHT22;55298;-36.624;-64.282;2022-10-16T11:24:08;12.20;99.90
59973;DHT22;55298;-36.624;-64.282;2022-10-16T11:26:41;12.20;99.90
59973;DHT22;55298;-36.624;-64.282;2022-10-16T11:29:23;12.40;99.90
59973;DHT22;55298;-36.624;-64.282;2022-10-16T11:31:57;12.60;99.90
59973;DHT22;55298;-36.624;-64.282;2022-10-16T11:34:36;12.70;99.90
59973;DHT22;55298;-36.624;-64.282;2022-10-16T11:39:54;12.70;99.90
59973;DHT22;55298;-36.624;-64.282;2022-10-16T11:42:37;12.80;99.90
59973;DHT22;55298;-36.624;-64.282;2022-10-16T11:45:39;12.70;99.90
59973;DHT22;55298;-36.624;-64.282;2022-10-16T11:48:32;12.70;99.90
59973;DHT22;55298;-36.624;-64.282;2022-10-16T11:51:13;12.90;99.90
59973;DHT22;55298;-36.624;-64.282;2022-10-16T11:53:51;12.90;99.90
59973;DHT22;55298;-36.624;-64.282;2022-10-16T11:56:22;12.90;99.90
59973;DHT22;55298;-36.624;-64.282;2022-10-16T11:58:57;12.90;99.90
59973;DHT22;55298;-36.624;-64.282;2022-10-16T12:01:38;13.00;99.90
59973;DHT22;55298;-36.624;-64.282;2022-10-16T12:04:21;13.00;99.90
59973;DHT22;55298;-36.624;-64.282;2022-10-16T12:07:11;13.10;99.90
59973;DHT22;55298;-36.624;-64.282;2022-10-16T12:09:40;13.30;99.90
59973;DHT22;55298;-36.624;-64.282;2022-10-16T12:17:38;14.40;99.90
59973;DHT22;55298;-36.624;-64.282;2022-10-16T12:20:28;14.90;99.90
59973;DHT22;55298;-36.624;-64.282;2022-10-16T12:23:02;15.60;99.90
59973;DHT22;55298;-36.624;-64.282;2022-10-16T12:25:36;16.40;99.90
59973;DHT22;55298;-36.624;-64.282;2022-10-16T12:28:27;17.30;99.90
59973;DHT22;55298;-36.624;-64.282;2022-10-16T12:30:57;17.70;98.40
59973;DHT22;55298;-36.624;-64.282;2022-10-16T12:33:30;18.00;96.90
59973;DHT22;55298;-36.624;-64.282;2022-10-16T12:36:00;18.50;95.00
59973;DHT22;55298;-36.624;-64.282;2022-10-16T12:38:37;18.90;93.10
59973;DHT22;55298;-36.624;-64.282;2022-10-16T12:41:08;19.40;91.50
59973;DHT22;55298;-36.624;-64.282;2022-10-16T12:43:41;19.60;89.90
59973;DHT22;55298;-36.624;-64.282;2022-10-16T12:46:35;20.10;86.10
59973;DHT22;55298;-36.624;-64.282;2022-10-16T12:49:32;20.00;81.00
59973;DHT22;55298;-36.624;-64.282;2022-10-16T12:52:03;19.70;82.30
59973;DHT22;55298;-36.624;-64.282;2022-10-16T12:54:36;19.70;81.90
59973;DHT22;55298;-36.624;-64.282;2022-10-16T13:05:45;20.30;74.00
59973;DHT22;55298;-36.624;-64.282;2022-10-16T13:14:24;20.80;67.90
59973;DHT22;55298;-36.624;-64.282;2022-10-16T13:20:21;20.80;68.70
59973;DHT22;55298;-36.624;-64.282;2022-10-16T13:23:11;20.90;68.30
59973;DHT22;55298;-36.624;-64.282;2022-10-16T13:26:18;21.30;64.30
59973;DHT22;55298;-36.624;-64.282;2022-10-16T13:28:50;21.60;61.00
59973;DHT22;55298;-36.624;-64.282;2022-10-16T13:31:23;21.40;60.80
59973;DHT22;55298;-36.624;-64.282;2022-10-16T13:33:55;21.50;61.00
59973;DHT22;55298;-36.624;-64.282;2022-10-16T13:36:30;21.50;59.50
59973;DHT22;55298;-36.624;-64.282;2022-10-16T13:42:03;21.00;59.00
59973;DHT22;55298;-36.624;-64.282;2022-10-16T13:44:40;20.80;59.10
59973;DHT22;55298;-36.624;-64.282;2022-10-16T13:47:19;20.80;60.00
59973;DHT22;55298;-36.624;-64.282;2022-10-16T13:49:58;20.90;60.40
59973;DHT22;55298;-36.624;-64.282;2022-10-16T13:52:26;21.20;59.00
59973;DHT22;55298;-36.624;-64.282;2022-10-16T13:54:54;21.70;57.20
59973;DHT22;55298;-36.624;-64.282;2022-10-16T13:57:24;21.70;56.30
59973;DHT22;55298;-36.624;-64.282;2022-10-16T13:59:52;21.50;55.90
59973;DHT22;55298;-36.624;-64.282;2022-10-16T14:02:27;21.40;56.90
59973;DHT22;55298;-36.624;-64.282;2022-10-16T14:05:02;21.30;57.70
59973;DHT22;55298;-36.624;-64.282;2022-10-16T14:07:33;21.80;56.00
59973;DHT22;55298;-36.624;-64.282;2022-10-16T14:10:06;22.00;54.80
59973;DHT22;55298;-36.624;-64.282;2022-10-16T14:12:34;22.10;54.90
59973;DHT22;55298;-36.624;-64.282;2022-10-16T14:15:02;22.10;52.90
59973;DHT22;55298;-36.624;-64.282;2022-10-16T14:17:32;21.90;52.60
59973;DHT22;55298;-36.624;-64.282;2022-10-16T14:20:05;21.80;53.20
59973;DHT22;55298;-36.624;-64.282;2022-10-16T14:22:38;21.70;53.30
59973;DHT22;55298;-36.624;-64.282;2022-10-16T14:25:28;21.70;53.70
59973;DHT22;55298;-36.624;-64.282;2022-10-16T14:28:14;22.00;53.30
59973;DHT22;55298;-36.624;-64.282;2022-10-16T14:30:57;22.20;51.30
59973;DHT22;55298;-36.624;-64.282;2022-10-16T14:33:34;22.20;52.50
59973;DHT22;55298;-36.624;-64.282;2022-10-16T14:36:13;22.20;51.90
59973;DHT22;55298;-36.624;-64.282;2022-10-16T14:38:48;21.90;52.60
59973;DHT22;55298;-36.624;-64.282;2022-10-16T14:41:21;22.00;52.20
59973;DHT22;55298;-36.624;-64.282;2022-10-16T14:43:54;22.20;50.10
59973;DHT22;55298;-36.624;-64.282;2022-10-16T14:46:30;21.90;51.30
59973;DHT22;55298;-36.624;-64.282;2022-10-16T14:49:18;22.00;50.70
59973;DHT22;55298;-36.624;-64.282;2022-10-16T14:51:47;22.30;51.00
59973;DHT22;55298;-36.624;-64.282;2022-10-16T14:54:16;22.40;48.70
59973;DHT22;55298;-36.624;-64.282;2022-10-16T14:56:51;22.20;49.40
59973;DHT22;55298;-36.624;-64.282;2022-10-16T14:59:40;22.00;50.00
59973;DHT22;55298;-36.624;-64.282;2022-10-16T15:02:27;21.80;50.60
59973;DHT22;55298;-36.624;-64.282;2022-10-16T15:04:55;21.80;50.10
59973;DHT22;55298;-36.624;-64.282;2022-10-16T15:07:23;22.00;49.10
59973;DHT22;55298;-36.624;-64.282;2022-10-16T15:09:52;22.20;48.80
59973;DHT22;55298;-36.624;-64.282;2022-10-16T15:12:20;22.20;48.80
59973;DHT22;55298;-36.624;-64.282;2022-10-16T15:14:48;22.00;47.60
59973;DHT22;55298;-36.624;-64.282;2022-10-16T15:17:15;22.30;47.80
59973;DHT22;55298;-36.624;-64.282;2022-10-16T15:19:44;22.40;48.40
59973;DHT22;55298;-36.624;-64.282;2022-10-16T15:22:12;22.30;49.10
59973;DHT22;55298;-36.624;-64.282;2022-10-16T15:24:39;22.70;47.80
59973;DHT22;55298;-36.624;-64.282;2022-10-16T15:27:07;22.50;47.80
59973;DHT22;55298;-36.624;-64.282;2022-10-16T15:29:37;22.00;48.20
59973;DHT22;55298;-36.624;-64.282;2022-10-16T15:32:04;21.60;46.80
59973;DHT22;55298;-36.624;-64.282;2022-10-16T15:34:31;21.20;48.70
59973;DHT22;55298;-36.624;-64.282;2022-10-16T15:37:02;21.00;49.10
59973;DHT22;55298;-36.624;-64.282;2022-10-16T15:39:30;21.00;50.50
59973;DHT22;55298;-36.624;-64.282;2022-10-16T15:41:59;20.90;48.20
59973;DHT22;55298;-36.624;-64.282;2022-10-16T15:44:25;20.80;49.30
59973;DHT22;55298;-36.624;-64.282;2022-10-16T15:46:56;20.90;48.60
59973;DHT22;55298;-36.624;-64.282;2022-10-16T15:49:23;21.00;49.80
59973;DHT22;55298;-36.624;-64.282;2022-10-16T15:51:53;21.20;49.40
59973;DHT22;55298;-36.624;-64.282;2022-10-16T15:54:21;21.50;47.60
59973;DHT22;55298;-36.624;-64.282;2022-10-16T15:56:49;21.60;46.80
59973;DHT22;55298;-36.624;-64.282;2022-10-16T15:59:16;21.70;44.90
59973;DHT22;55298;-36.624;-64.282;2022-10-16T16:01:44;21.60;45.80
59973;DHT22;55298;-36.624;-64.282;2022-10-16T16:04:11;21.50;46.70
59973;DHT22;55298;-36.624;-64.282;2022-10-16T16:06:38;21.80;46.30
59973;DHT22;55298;-36.624;-64.282;2022-10-16T16:09:13;21.70;42.10
59973;DHT22;55298;-36.624;-64.282;2022-10-16T16:11:42;21.70;44.60
59973;DHT22;55298;-36.624;-64.282;2022-10-16T16:14:13;21.60;44.10
59973;DHT22;55298;-36.624;-64.282;2022-10-16T16:16:41;21.80;42.90
59973;DHT22;55298;-36.624;-64.282;2022-10-16T16:19:10;22.20;43.80
59973;DHT22;55298;-36.624;-64.282;2022-10-16T16:21:37;21.90;43.90
59973;DHT22;55298;-36.624;-64.282;2022-10-16T16:24:05;21.80;43.70
59973;DHT22;55298;-36.624;-64.282;2022-10-16T16:26:34;21.70;44.00
59973;DHT22;55298;-36.624;-64.282;2022-10-16T16:29:06;21.80;43.00
59973;DHT22;55298;-36.624;-64.282;2022-10-16T16:31:36;21.80;42.60